Time;durP1;ratioP1;P1;durP2;ratioP2;P2;SDS_P1;SDS_P2;PMS_P1;PMS_P2;Temp;Humidity;BMP_temperature;BMP_pressure;BME280_temperature;BME280_humidity;BME280_pressure;Samples;Min_cycle;Max_cycle;Signal;HPM_P1;HPM_P2
2022/06/15 00:04:26;;;;;;;2.07;1.10;;;;;;;24.94;35.02;100753.34;20864643;27;97000;-81
2022/06/15 00:14:28;;;;;;;1.05;1.00;;;;;;;24.93;35.04;100783.47;20869273;27;98787;-81
2022/06/15 00:24:29;;;;;;;5.20;0.98;;;;;;;24.92;34.94;100787.06;20872488;27;99002;-81
2022/06/15 00:34:30;;;;;;;2.55;1.00;;;;;;;24.90;35.08;100775.78;20864036;27;97569;-81
2022/06/15 00:44:34;;;;;;;0.77;0.77;;;;;;;24.88;34.89;100764.50;20876700;27;98460;-80
2022/06/15 00:54:34;;;;;;;2.45;1.13;;;;;;;24.86;34.94;100762.94;20876713;27;97234;-80
2022/06/15 01:04:47;;;;;;;2.42;1.30;;;;;;;24.85;34.97;100756.81;20882299;27;97781;-80
2022/06/15 01:15:06;;;;;;;1.45;0.98;;;;;;;24.85;34.96;100759.47;20878390;27;100951;-81
2022/06/15 01:25:38;;;;;;;1.20;0.93;;;;;;;24.82;35.15;100767.69;20873581;27;98584;-81
2022/06/15 01:36:03;;;;;;;1.92;0.98;;;;;;;24.81;35.13;100766.00;20878234;27;101021;-79
2022/06/15 01:46:05;;;;;;;2.10;0.98;;;;;;;24.81;35.03;100767.81;20869995;27;97100;-79
2022/06/15 01:56:15;;;;;;;2.28;1.00;;;;;;;24.77;34.97;100776.00;20872794;27;103869;-81
2022/06/15 02:06:31;;;;;;;1.80;0.98;;;;;;;24.78;35.22;100779.53;20871227;27;97101;-80
2022/06/15 02:16:36;;;;;;;1.92;1.00;;;;;;;24.76;35.25;100784.94;20876955;27;97106;-79
2022/06/15 02:26:39;;;;;;;1.00;0.90;;;;;;;24.71;35.21;100795.09;20866439;27;97298;-80
2022/06/15 02:36:39;;;;;;;1.40;1.10;;;;;;;24.69;35.20;100796.19;20861127;27;97853;-81
2022/06/15 02:46:46;;;;;;;0.80;0.80;;;;;;;24.59;35.41;100793.47;20871467;27;97594;-80
2022/06/15 02:56:47;;;;;;;5.03;1.20;;;;;;;24.60;35.51;100793.31;20854484;27;97936;-80
2022/06/15 03:06:48;;;;;;;1.53;1.20;;;;;;;24.59;35.32;100802.22;20861504;27;99597;-80
2022/06/15 03:16:49;;;;;;;1.20;1.00;;;;;;;24.57;35.65;100803.34;20863466;27;97653;-81
2022/06/15 03:26:50;;;;;;;1.67;1.00;;;;;;;24.58;35.63;100807.66;20854595;27;99052;-81
2022/06/15 03:36:50;;;;;;;1.08;0.93;;;;;;;24.56;35.66;100817.53;20857559;27;99612;-80
2022/06/15 03:46:50;;;;;;;7.57;1.70;;;;;;;24.13;34.92;100820.22;20842966;27;104207;-79
2022/06/15 03:56:51;;;;;;;5.47;1.65;;;;;;;23.76;34.98;100827.66;20844467;27;97674;-78
2022/06/15 04:06:51;;;;;;;2.33;1.63;;;;;;;23.47;34.88;100836.13;20848193;27;97808;-79
2022/06/15 04:16:56;;;;;;;7.40;1.60;;;;;;;23.27;34.82;100837.75;20830240;27;97126;-78
2022/06/15 04:26:58;;;;;;;2.92;1.50;;;;;;;23.34;35.15;100833.66;20827291;27;97408;-78
2022/06/15 04:36:58;;;;;;;3.40;2.40;;;;;;;23.11;35.32;100841.56;20823406;27;97749;-78
2022/06/15 04:47:01;;;;;;;10.93;4.63;;;;;;;23.10;35.60;100841.69;20835199;27;98792;-77
2022/06/15 04:57:01;;;;;;;;;;;;;;;22.77;35.72;100836.25;20853073;27;98629;-76
2022/06/15 05:07:03;;;;;;;4.07;1.52;;;;;;;22.63;36.59;100844.38;20844203;27;98707;-83
2022/06/15 05:17:03;;;;;;;4.37;1.93;;;;;;;22.46;36.26;100857.09;20853176;27;101345;-82
2022/06/15 05:27:05;;;;;;;6.70;1.60;;;;;;;22.25;36.76;100861.28;20841734;27;98005;-84
2022/06/15 05:37:06;;;;;;;2.08;1.30;;;;;;;22.31;36.48;100858.19;20869334;27;97618;-84
2022/06/15 05:47:07;;;;;;;5.90;1.40;;;;;;;22.33;37.33;100856.28;20876795;27;97265;-84
2022/06/15 05:57:23;;;;;;;2.40;1.50;;;;;;;22.46;37.79;100857.09;20880220;27;97431;-85
2022/06/15 06:07:24;;;;;;;5.43;2.60;;;;;;;22.42;37.24;100862.69;20898157;27;99407;-85
2022/06/15 06:17:25;;;;;;;5.10;2.35;;;;;;;22.53;37.34;100863.59;20882656;27;97718;-83
2022/06/15 06:27:25;;;;;;;4.13;2.03;;;;;;;22.58;36.02;100872.94;20874722;27;97850;-82
2022/06/15 06:37:27;;;;;;;4.57;1.70;;;;;;;22.50;35.81;100874.34;20896314;27;97649;-82
2022/06/15 06:47:28;;;;;;;7.00;1.40;;;;;;;22.63;35.88;100871.63;20875654;27;97171;-80
2022/06/15 06:57:28;;;;;;;5.75;1.45;;;;;;;22.78;35.98;100869.63;20882344;27;97872;-78
2022/06/15 07:07:32;;;;;;;2.88;1.45;;;;;;;22.97;35.36;100869.06;20868191;27;96810;-79
2022/06/15 07:17:33;;;;;;;2.72;1.50;;;;;;;23.11;35.34;100878.53;20858548;27;97696;-79
2022/06/15 07:27:35;;;;;;;5.53;1.45;;;;;;;23.24;35.50;100880.25;20844641;27;99007;-76
2022/06/15 07:37:36;;;;;;;1.85;1.48;;;;;;;23.37;35.81;100875.69;20854392;27;97753;-78
2022/06/15 07:57:58;;;;;;;2.75;1.38;;;;;;;23.55;36.48;100864.63;20865893;27;97358;-78
2022/06/15 08:07:58;;;;;;;1.95;1.40;;;;;;;23.60;36.50;100859.78;20848694;27;96962;-78
2022/06/15 08:18:08;;;;;;;5.55;1.60;;;;;;;23.66;36.50;100854.84;20851747;27;99125;-79
2022/06/15 08:28:10;;;;;;;3.20;1.52;;;;;;;23.71;36.63;100856.28;20841857;27;97201;-79
2022/06/15 08:38:15;;;;;;;2.97;1.30;;;;;;;23.76;36.67;100864.69;20846304;27;102459;-78
2022/06/15 08:48:25;;;;;;;3.45;1.17;;;;;;;23.81;36.95;100852.78;20848917;27;97008;-78
2022/06/15 08:58:45;;;;;;;2.97;1.38;;;;;;;23.85;36.64;100848.03;20844571;27;97610;-79
2022/06/15 09:09:15;;;;;;;3.15;1.33;;;;;;;23.88;36.83;100854.91;20845382;27;99223;-78
2022/06/15 09:19:24;;;;;;;4.45;1.38;;;;;;;23.91;36.86;100841.44;20843501;27;97178;-79
2022/06/15 09:29:27;;;;;;;3.03;1.30;;;;;;;23.94;36.58;100841.22;20865227;27;97617;-78
2022/06/15 09:39:29;;;;;;;2.85;1.10;;;;;;;23.95;36.79;100838.44;20863808;27;97154;-78
2022/06/15 09:50:00;;;;;;;1.20;0.97;;;;;;;23.99;36.65;100828.44;20871177;27;97516;-79
2022/06/15 10:00:04;;;;;;;2.07;1.20;;;;;;;24.01;36.35;100823.03;20861371;27;100525;-78
2022/06/15 10:10:22;;;;;;;4.32;1.00;;;;;;;24.04;36.60;100818.31;20857637;27;100250;-79
2022/06/15 10:20:35;;;;;;;1.75;0.90;;;;;;;24.08;36.46;100803.91;20884094;27;97325;-79
2022/06/15 10:30:35;;;;;;;1.85;1.30;;;;;;;24.11;36.50;100793.03;20907120;27;97577;-79
2022/06/15 10:40:39;;;;;;;3.28;1.60;;;;;;;24.16;36.36;100786.50;20885592;27;97143;-79
2022/06/15 10:50:53;;;;;;;3.15;1.40;;;;;;;24.21;35.95;100782.50;20853594;27;97380;-79
2022/06/15 11:11:26;;;;;;;2.35;1.75;;;;;;;24.31;35.79;100758.75;20848515;27;97757;-79
2022/06/15 11:21:33;;;;;;;3.72;1.65;;;;;;;24.35;34.92;100744.31;20851967;27;98082;-78
2022/06/15 11:31:33;;;;;;;1.73;1.50;;;;;;;24.43;34.76;100739.19;20852944;27;97630;-78
2022/06/15 11:41:44;;;;;;;3.85;1.58;;;;;;;24.50;33.95;100726.28;20852070;27;97681;-78
2022/06/15 11:52:06;;;;;;;1.90;1.27;;;;;;;24.58;34.33;100725.59;20845852;27;96920;-78
2022/06/15 12:02:40;;;;;;;3.47;1.20;;;;;;;24.64;34.36;100711.00;20854084;27;96942;-78
2022/06/15 12:12:56;;;;;;;2.65;1.50;;;;;;;24.72;34.25;100708.56;20826994;27;96991;-78
2022/06/15 12:23:00;;;;;;;2.63;1.40;;;;;;;24.78;34.52;100698.25;20866903;27;97849;-78
2022/06/15 12:33:18;;;;;;;1.70;1.50;;;;;;;24.82;34.52;100698.81;20856752;27;96933;-78
2022/06/15 12:43:33;;;;;;;3.50;1.70;;;;;;;24.84;34.21;100686.28;20852158;27;96928;-78
2022/06/15 12:53:55;;;;;;;1.55;1.45;;;;;;;24.90;34.30;100682.22;20844645;27;98036;-78
2022/06/15 13:04:31;;;;;;;2.25;1.40;;;;;;;24.96;34.09;100678.22;20859126;27;96916;-77
2022/06/15 13:14:36;;;;;;;1.95;1.55;;;;;;;25.02;34.60;100659.94;20854480;27;98014;-77
2022/06/15 13:25:17;;;;;;;1.70;1.27;;;;;;;25.07;34.03;100665.69;20854005;27;97734;-77
2022/06/15 13:35:24;;;;;;;2.10;1.48;;;;;;;25.12;34.22;100662.63;20845058;27;98522;-77
2022/06/15 13:45:26;;;;;;;2.28;1.30;;;;;;;25.20;34.13;100651.31;20862844;27;98392;-79
2022/06/15 13:55:26;;;;;;;;;;;;;;;25.26;33.97;100648.94;20863435;27;97994;-78
2022/06/15 14:05:42;;;;;;;14.48;4.35;;;;;;;25.30;34.18;100638.91;20868554;27;96904;-78
2022/06/15 14:16:14;;;;;;;8.05;3.53;;;;;;;25.35;34.25;100636.69;20850491;27;96736;-77
2022/06/15 14:26:18;;;;;;;8.05;3.17;;;;;;;25.42;34.23;100636.97;20854297;27;97875;-79
2022/06/15 14:36:20;;;;;;;7.53;3.13;;;;;;;25.45;33.83;100618.16;20859485;27;97097;-79
2022/06/15 14:46:25;;;;;;;5.68;2.60;;;;;;;25.49;34.00;100616.06;20865607;27;96979;-78
2022/06/15 14:56:51;;;;;;;3.05;2.35;;;;;;;25.50;34.02;100607.94;20848997;27;96995;-77
2022/06/15 15:07:00;;;;;;;7.63;2.85;;;;;;;25.51;33.78;100596.38;20856911;27;97213;-79
2022/06/15 15:17:05;;;;;;;3.65;2.72;;;;;;;25.50;34.05;100591.19;20856205;27;97306;-78
2022/06/15 15:27:06;;;;;;;2.65;2.30;;;;;;;25.51;34.25;100584.91;20857876;27;98919;-78
2022/06/15 15:47:25;;;;;;;3.25;2.17;;;;;;;25.54;34.33;100572.22;20853522;27;97066;-78
2022/06/15 15:57:26;;;;;;;3.23;2.00;;;;;;;25.58;35.58;100564.81;20835364;27;98613;-77
2022/06/15 16:07:28;;;;;;;3.60;2.15;;;;;;;25.61;36.24;100569.84;20834295;27;97185;-76
2022/06/15 16:17:31;;;;;;;4.75;1.90;;;;;;;25.61;35.86;100569.84;20846270;27;96932;-77
2022/06/15 16:27:31;;;;;;;2.88;1.60;;;;;;;25.63;35.23;100562.56;20835513;27;99965;-77
2022/06/15 16:37:33;;;;;;;3.03;1.88;;;;;;;25.63;35.83;100561.72;20867350;27;96916;-77
2022/06/15 16:47:34;;;;;;;10.17;1.90;;;;;;;25.63;35.25;100551.13;20839066;27;99121;-78
2022/06/15 16:57:34;;;;;;;10.88;1.70;;;;;;;25.64;35.62;100548.31;20840423;27;98261;-82
2022/06/15 17:07:36;;;;;;;12.98;5.22;;;;;;;25.69;35.28;100551.38;20865976;27;97814;-81
2022/06/15 17:17:38;;;;;;;8.30;3.90;;;;;;;25.72;34.26;100547.63;20854150;27;100378;-80
2022/06/15 17:27:39;;;;;;;6.68;3.17;;;;;;;25.71;34.47;100538.81;20865995;27;98792;-81
2022/06/15 17:37:40;;;;;;;4.67;2.80;;;;;;;25.69;34.48;100534.63;20855757;27;100413;-80
2022/06/15 17:47:41;;;;;;;8.48;3.15;;;;;;;25.69;34.73;100548.72;20857241;27;96862;-81
2022/06/15 17:57:42;;;;;;;9.00;3.20;;;;;;;25.75;35.85;100555.25;20863772;27;98339;-73
2022/06/15 18:07:42;;;;;;;5.80;2.10;;;;;;;25.75;36.00;100552.59;20843003;27;98853;-77
2022/06/15 18:17:46;;;;;;;3.17;1.77;;;;;;;25.71;36.17;100557.38;20845450;27;101039;-76
2022/06/15 18:27:47;;;;;;;10.18;2.65;;;;;;;25.69;37.23;100553.19;20853278;27;99021;-77
2022/06/15 18:37:51;;;;;;;6.43;2.17;;;;;;;25.56;33.44;100557.00;20839682;27;98440;-76
2022/06/15 18:47:51;;;;;;;4.35;2.42;;;;;;;25.33;32.64;100558.25;20836929;27;97984;-78
2022/06/15 18:57:55;;;;;;;4.00;2.75;;;;;;;25.26;32.92;100568.59;20846749;27;98220;-77
2022/06/15 19:08:00;;;;;;;5.68;2.85;;;;;;;25.13;33.14;100582.13;20833595;27;100690;-76
2022/06/15 19:18:00;;;;;;;4.50;2.88;;;;;;;25.02;32.74;100588.41;20824850;27;98386;-76
2022/06/15 19:28:01;;;;;;;4.78;2.90;;;;;;;24.93;32.76;100605.16;20812676;27;98713;-77
2022/06/15 19:38:01;;;;;;;3.90;2.13;;;;;;;24.96;32.96;100609.34;20848550;27;101646;-76
2022/06/15 19:48:04;;;;;;;6.03;2.45;;;;;;;24.91;33.47;100610.59;20850708;27;97472;-74
2022/06/15 19:58:07;;;;;;;4.57;2.50;;;;;;;24.85;33.88;100620.91;20854464;27;101188;-76
2022/06/15 20:08:10;;;;;;;6.55;3.60;;;;;;;24.82;34.19;100615.88;20844559;27;98448;-76
2022/06/15 20:18:15;;;;;;;4.43;3.15;;;;;;;24.78;34.22;100623.28;20839366;27;101557;-75
2022/06/15 20:28:22;;;;;;;9.02;3.17;;;;;;;24.77;34.38;100627.72;20838103;27;105358;-76
2022/06/15 20:38:23;;;;;;;4.70;2.50;;;;;;;24.70;34.52;100620.47;20840913;27;97627;-76
2022/06/15 20:48:23;;;;;;;6.07;2.40;;;;;;;24.66;34.76;100617.25;20839617;27;98263;-76
2022/06/15 20:58:24;;;;;;;4.77;2.30;;;;;;;24.61;34.90;100625.56;20850041;27;97961;-76
2022/06/15 21:08:26;;;;;;;7.00;2.60;;;;;;;24.57;35.49;100623.31;20834151;27;101313;-76
2022/06/15 21:18:26;;;;;;;4.93;2.63;;;;;;;24.57;35.72;100626.81;20825015;27;101191;-77
2022/06/15 21:28:27;;;;;;;7.78;2.60;;;;;;;24.54;36.26;100634.19;20845314;27;98742;-76
2022/06/15 21:38:29;;;;;;;6.90;2.55;;;;;;;24.43;36.32;100629.84;20842826;27;97971;-76
2022/06/15 21:48:31;;;;;;;6.27;2.97;;;;;;;24.35;36.60;100629.66;20841448;27;98149;-73
2022/06/15 21:58:32;;;;;;;4.70;2.75;;;;;;;24.30;36.85;100636.19;20841058;27;97829;-76
2022/06/15 22:08:32;;;;;;;8.35;3.05;;;;;;;24.29;36.64;100634.53;20843492;27;99002;-75
2022/06/15 22:18:33;;;;;;;4.63;2.30;;;;;;;24.20;36.87;100626.53;20843227;27;96994;-75
2022/06/15 22:28:34;;;;;;;4.57;2.40;;;;;;;24.13;37.11;100637.66;20850924;27;97129;-74
2022/06/15 22:38:35;;;;;;;6.17;2.57;;;;;;;24.07;37.35;100637.34;20838589;27;99684;-75
2022/06/15 22:58:56;;;;;;;5.60;2.70;;;;;;;23.98;37.74;100644.25;20841847;27;97629;-75
2022/06/15 23:08:56;;;;;;;3.80;2.50;;;;;;;23.93;37.62;100654.41;20835056;27;97822;-75
2022/06/15 23:18:57;;;;;;;4.50;2.30;;;;;;;23.85;37.79;100654.16;20842247;27;96948;-76
2022/06/15 23:28:57;;;;;;;3.65;2.30;;;;;;;23.81;38.10;100654.44;20841204;27;97614;-76
2022/06/15 23:38:58;;;;;;;6.18;2.72;;;;;;;23.75;38.16;100647.00;20839751;27;100763;-75
2022/06/15 23:48:58;;;;;;;5.28;2.65;;;;;;;23.67;38.24;100650.31;20845254;27;98214;-76
2022/06/15 23:58:59;;;;;;;4.72;2.90;;;;;;;23.61;38.80;100648.19;20838294;27;97664;-76
